createdAt,value
2022-12-29T00:00:55.746Z,17.70
2022-12-29T00:02:57.538Z,20.40
2022-12-29T00:05:02.153Z,19.88
2022-12-29T00:07:06.680Z,18.33
2022-12-29T00:09:08.368Z,24.25
2022-12-29T00:11:11.457Z,17.38
2022-12-29T00:13:31.770Z,23.20
2022-12-29T00:15:39.651Z,21.55
2022-12-29T00:17:41.186Z,18.70
2022-12-29T00:20:01.664Z,23.30
2022-12-29T00:22:21.781Z,21.42
2022-12-29T00:24:23.229Z,28.70
2022-12-29T00:26:43.413Z,28.45
2022-12-29T00:29:03.651Z,22.83
2022-12-29T00:31:30.652Z,29.15
2022-12-29T00:33:52.368Z,24.53
2022-12-29T00:35:56.164Z,21.05
2022-12-29T00:38:18.505Z,20.33
2022-12-29T00:40:44.260Z,20.35
2022-12-29T00:43:04.405Z,17.90
2022-12-29T00:45:06.233Z,24.02
2022-12-29T00:47:07.827Z,15.75
2022-12-29T00:51:31.994Z,21.15
2022-12-29T00:55:43.518Z,19.90
2022-12-29T00:57:44.999Z,15.30
2022-12-29T00:59:52.368Z,18.88
2022-12-29T01:01:54.543Z,19.30
2022-12-29T01:04:01.874Z,16.17
2022-12-29T01:06:08.120Z,19.60
2022-12-29T01:08:09.664Z,17.77
2022-12-29T01:10:15.721Z,14.35
2022-12-29T01:12:17.228Z,27.00
2022-12-29T01:14:20.511Z,11.10
2022-12-29T01:16:28.178Z,18.75
2022-12-29T01:18:35.635Z,20.75
2022-12-29T01:20:46.118Z,14.02
2022-12-29T01:22:48.288Z,21.42
2022-12-29T01:24:52.850Z,26.40
2022-12-29T01:27:00.407Z,21.35
2022-12-29T01:29:07.560Z,22.80
2022-12-29T01:31:09.708Z,22.73
2022-12-29T01:33:11.219Z,26.30
2022-12-29T01:35:15.475Z,18.88
2022-12-29T01:37:19.771Z,23.48
2022-12-29T01:39:21.345Z,22.70
2022-12-29T01:41:26.071Z,23.15
2022-12-29T01:43:39.951Z,24.63
2022-12-29T01:45:51.494Z,30.13
2022-12-29T01:47:57.962Z,26.63
2022-12-29T01:50:02.418Z,33.20
2022-12-29T01:52:08.937Z,24.33
2022-12-29T01:54:30.795Z,30.77
2022-12-29T01:56:32.422Z,37.33
2022-12-29T01:58:36.370Z,27.50
2022-12-29T02:00:40.836Z,26.70
2022-12-29T02:04:49.417Z,30.23
2022-12-29T02:06:58.274Z,28.05
2022-12-29T02:08:59.937Z,33.75
2022-12-29T02:11:01.954Z,27.98
2022-12-29T02:13:13.084Z,22.75
2022-12-29T02:15:14.928Z,23.25
2022-12-29T02:17:21.254Z,30.35
2022-12-29T02:19:30.591Z,25.67
2022-12-29T02:21:52.843Z,25.48
2022-12-29T02:24:18.694Z,24.80
2022-12-29T02:26:47.755Z,31.17
2022-12-29T02:29:07.500Z,28.27
2022-12-29T02:31:21.586Z,26.70
2022-12-29T02:33:34.881Z,30.45
2022-12-29T02:36:00.258Z,23.13
2022-12-29T02:38:10.349Z,19.67
2022-12-29T02:40:26.546Z,21.80
2022-12-29T02:42:44.323Z,28.98
2022-12-29T02:45:00.798Z,29.45
2022-12-29T02:47:15.655Z,30.63
2022-12-29T02:49:30.341Z,27.50
2022-12-29T02:51:46.847Z,20.35
2022-12-29T02:54:14.129Z,26.00
2022-12-29T02:56:21.940Z,21.65
2022-12-29T02:58:24.494Z,19.35
2022-12-29T03:00:26.189Z,27.52
2022-12-29T03:02:46.198Z,25.48
2022-12-29T03:05:06.573Z,27.00
2022-12-29T03:07:27.352Z,22.52
2022-12-29T03:09:42.129Z,27.85
2022-12-29T03:12:08.502Z,26.95
2022-12-29T03:14:47.320Z,31.83
2022-12-29T03:16:50.834Z,26.90
2022-12-29T03:19:01.488Z,20.85
2022-12-29T03:21:06.600Z,29.27
2022-12-29T03:23:08.342Z,29.00
2022-12-29T03:25:22.600Z,22.80
2022-12-29T03:27:26.563Z,24.50
2022-12-29T03:29:36.415Z,27.15
2022-12-29T03:31:38.598Z,29.58
2022-12-29T03:33:46.370Z,26.27
2022-12-29T03:35:51.825Z,24.10
2022-12-29T03:38:16.651Z,32.28
2022-12-29T03:40:24.617Z,25.75
2022-12-29T03:42:27.619Z,25.33
2022-12-29T03:44:40.327Z,30.05
2022-12-29T03:46:41.832Z,28.40
2022-12-29T03:48:49.234Z,22.90
2022-12-29T03:50:53.721Z,25.35
2022-12-29T03:52:55.236Z,21.77
2022-12-29T03:54:56.771Z,19.63
2022-12-29T03:56:58.276Z,24.65
2022-12-29T03:58:59.826Z,25.30
2022-12-29T04:01:04.409Z,26.33
2022-12-29T04:03:06.126Z,24.67
2022-12-29T04:05:07.865Z,23.77
2022-12-29T04:07:12.063Z,22.75
2022-12-29T04:11:27.097Z,22.70
2022-12-29T04:13:31.260Z,21.35
2022-12-29T04:15:35.859Z,18.63
2022-12-29T04:17:40.288Z,14.38
2022-12-29T04:19:44.451Z,18.63
2022-12-29T04:21:48.743Z,15.88
2022-12-29T04:23:53.096Z,14.52
2022-12-29T04:25:57.579Z,24.00
2022-12-29T04:27:59.281Z,15.45
2022-12-29T04:30:00.715Z,19.13
2022-12-29T04:32:02.181Z,20.60
2022-12-29T04:34:09.586Z,16.17
2022-12-29T04:36:11.110Z,13.23
2022-12-29T04:38:18.660Z,15.30
2022-12-29T04:40:20.147Z,9.02
2022-12-29T04:44:25.777Z,11.48
2022-12-29T04:46:33.403Z,13.68
2022-12-29T04:48:38.326Z,12.82
2022-12-29T04:50:48.263Z,8.60
2022-12-29T04:52:49.790Z,9.32
2022-12-29T04:54:54.311Z,11.60
2022-12-29T04:56:55.790Z,9.45
2022-12-29T04:58:57.243Z,8.50
2022-12-29T05:01:04.703Z,6.10
2022-12-29T05:03:09.330Z,7.18
2022-12-29T05:05:11.184Z,5.65
2022-12-29T05:07:18.658Z,6.32
2022-12-29T05:09:20.225Z,8.88
2022-12-29T05:11:27.861Z,5.97
2022-12-29T05:13:32.004Z,6.80
2022-12-29T05:15:33.577Z,4.60
2022-12-29T05:17:42.723Z,5.20
2022-12-29T05:19:45.787Z,7.93
2022-12-29T05:22:02.931Z,2.70
2022-12-29T05:24:13.980Z,2.22
2022-12-29T05:26:28.801Z,4.28
2022-12-29T05:28:43.590Z,4.22
2022-12-29T05:30:54.473Z,3.28
2022-12-29T05:33:10.657Z,2.60
2022-12-29T05:35:20.204Z,4.18
2022-12-29T05:37:26.709Z,4.60
2022-12-29T05:39:39.283Z,1.95
2022-12-29T05:41:55.842Z,4.43
2022-12-29T05:44:04.964Z,4.28
2022-12-29T05:46:17.162Z,2.53
2022-12-29T05:48:38.095Z,2.50
2022-12-29T05:50:58.498Z,2.15
2022-12-29T05:53:06.826Z,2.28
2022-12-29T05:55:19.383Z,3.60
2022-12-29T05:57:29.423Z,0.90
2022-12-29T05:59:30.984Z,2.33
2022-12-29T06:03:37.144Z,2.92
2022-12-29T06:05:38.784Z,1.52
2022-12-29T06:07:40.303Z,0.93
2022-12-29T06:09:41.819Z,1.00
2022-12-29T06:11:49.592Z,3.13
2022-12-29T06:13:53.874Z,2.75
2022-12-29T06:15:55.600Z,2.22
2022-12-29T06:18:00.477Z,4.05
2022-12-29T06:20:02.214Z,1.58
2022-12-29T06:22:08.256Z,1.35
2022-12-29T06:24:12.507Z,1.92
2022-12-29T06:26:13.959Z,1.35
2022-12-29T06:28:18.335Z,2.63
2022-12-29T06:30:19.808Z,2.60
2022-12-29T06:34:25.975Z,4.57
2022-12-29T06:36:27.477Z,2.30
2022-12-29T06:40:36.051Z,2.35
2022-12-29T06:42:43.322Z,6.28
2022-12-29T06:44:47.953Z,2.25
2022-12-29T06:46:55.732Z,1.58
2022-12-29T06:48:57.235Z,1.65
2022-12-29T06:50:58.737Z,2.67
2022-12-29T06:53:06.276Z,4.55
2022-12-29T06:55:07.958Z,2.13
2022-12-29T06:57:15.408Z,4.68
2022-12-29T06:59:19.815Z,5.85
2022-12-29T07:01:24.200Z,4.55
2022-12-29T07:03:26.427Z,4.07
2022-12-29T07:05:28.783Z,3.30
2022-12-29T07:07:30.299Z,3.72
2022-12-29T07:11:38.978Z,2.78
2022-12-29T07:13:40.746Z,5.70
2022-12-29T07:15:48.545Z,2.60
2022-12-29T07:17:50.864Z,3.25
2022-12-29T07:19:52.481Z,4.20
2022-12-29T07:21:56.838Z,1.98
2022-12-29T07:23:58.291Z,1.92
2022-12-29T07:26:00.844Z,1.13
2022-12-29T07:28:02.846Z,4.45
2022-12-29T07:30:04.579Z,3.58
2022-12-29T07:32:08.988Z,2.75
2022-12-29T07:34:13.394Z,3.55
2022-12-29T07:36:15.380Z,6.47
2022-12-29T07:38:17.320Z,2.13
2022-12-29T07:40:19.133Z,2.90
2022-12-29T07:42:20.627Z,4.53
2022-12-29T07:44:22.076Z,1.38
2022-12-29T07:46:55.518Z,4.40
2022-12-29T07:48:57.310Z,5.35
2022-12-29T07:50:58.798Z,1.35
2022-12-29T07:53:00.597Z,5.10
2022-12-29T07:55:05.392Z,4.20
2022-12-29T07:57:07.024Z,4.28
2022-12-29T07:59:08.503Z,3.17
2022-12-29T08:01:10.157Z,4.32
2022-12-29T08:03:11.741Z,6.15
2022-12-29T08:05:20.504Z,4.22
2022-12-29T08:07:22.149Z,5.03
2022-12-29T08:09:26.995Z,6.47
2022-12-29T08:11:31.678Z,2.50
2022-12-29T08:13:33.740Z,3.78
2022-12-29T08:15:38.631Z,4.43
2022-12-29T08:17:40.182Z,3.13
2022-12-29T08:19:47.524Z,2.45
2022-12-29T08:21:49.043Z,4.50
2022-12-29T08:23:59.029Z,5.72
2022-12-29T08:26:10.515Z,3.30
2022-12-29T08:28:31.872Z,4.05
2022-12-29T08:30:46.265Z,5.15
2022-12-29T08:33:07.283Z,1.85
2022-12-29T08:35:20.668Z,5.63
2022-12-29T08:37:37.170Z,2.42
2022-12-29T08:39:53.375Z,1.55
2022-12-29T08:42:15.777Z,3.42
2022-12-29T08:44:31.024Z,4.18
2022-12-29T08:46:55.332Z,4.07
2022-12-29T08:49:12.382Z,2.47
2022-12-29T08:51:26.180Z,2.42
2022-12-29T08:53:45.944Z,2.88
2022-12-29T08:56:11.748Z,3.60
2022-12-29T08:58:27.767Z,3.20
2022-12-29T09:00:40.068Z,5.03
2022-12-29T09:02:41.993Z,1.50
2022-12-29T09:04:43.595Z,1.70
2022-12-29T09:06:45.885Z,3.10
2022-12-29T09:08:47.568Z,3.08
2022-12-29T09:10:55.025Z,3.13
2022-12-29T09:13:02.357Z,1.75
2022-12-29T09:15:09.991Z,1.52
2022-12-29T09:17:30.486Z,2.88
2022-12-29T09:19:34.627Z,1.85
2022-12-29T09:21:42.202Z,2.00
2022-12-29T09:23:43.637Z,2.00
2022-12-29T09:25:45.607Z,0.75
2022-12-29T09:27:48.865Z,1.77
2022-12-29T09:29:50.356Z,5.50
2022-12-29T09:33:56.309Z,2.03
2022-12-29T09:36:00.550Z,1.75
2022-12-29T09:38:08.049Z,1.65
2022-12-29T09:40:34.282Z,1.60
2022-12-29T09:42:35.855Z,2.05
2022-12-29T09:44:52.747Z,2.97
2022-12-29T09:47:01.742Z,1.80
2022-12-29T09:49:14.720Z,1.27
2022-12-29T09:51:22.560Z,2.67
2022-12-29T09:53:30.215Z,6.28
2022-12-29T09:55:43.456Z,2.95
2022-12-29T09:57:50.831Z,3.33
2022-12-29T09:59:58.241Z,2.47
2022-12-29T10:02:18.077Z,2.30
2022-12-29T10:04:27.801Z,2.13
2022-12-29T10:07:27.500Z,8.52
2022-12-29T10:09:21.651Z,4.25
2022-12-29T10:11:23.402Z,6.03
2022-12-29T10:13:44.156Z,4.75
2022-12-29T10:16:04.300Z,4.13
2022-12-29T10:18:14.695Z,5.95
2022-12-29T10:20:31.250Z,3.58
2022-12-29T10:22:32.785Z,10.30
2022-12-29T10:24:41.088Z,5.55
2022-12-29T10:26:50.231Z,5.35
2022-12-29T10:29:08.367Z,6.03
2022-12-29T10:31:48.601Z,2.45
2022-12-29T10:33:56.858Z,3.50
2022-12-29T10:35:59.168Z,6.43
2022-12-29T10:38:06.062Z,4.32
2022-12-29T10:40:20.775Z,7.65
2022-12-29T10:42:28.295Z,3.33
2022-12-29T10:44:31.778Z,4.45
2022-12-29T10:46:39.220Z,8.18
2022-12-29T10:51:01.539Z,6.40
2022-12-29T10:53:06.791Z,10.40
2022-12-29T10:55:15.989Z,7.80
2022-12-29T10:57:26.257Z,5.10
2022-12-29T10:59:31.180Z,4.60
2022-12-29T11:01:42.297Z,6.55
2022-12-29T11:03:55.273Z,5.32
2022-12-29T11:06:11.083Z,7.22
2022-12-29T11:08:20.083Z,9.90
2022-12-29T11:10:29.652Z,10.70
2022-12-29T11:12:34.932Z,8.68
2022-12-29T11:14:36.592Z,9.60
2022-12-29T11:16:42.672Z,10.05
2022-12-29T11:18:47.852Z,10.85
2022-12-29T11:20:56.383Z,10.50
2022-12-29T11:22:58.097Z,12.23
2022-12-29T11:25:11.231Z,7.18
2022-12-29T11:27:21.682Z,8.20
2022-12-29T11:29:24.158Z,7.00
2022-12-29T11:31:28.782Z,10.23
2022-12-29T11:33:37.279Z,10.25
2022-12-29T11:35:45.069Z,7.82
2022-12-29T11:37:57.209Z,5.88
2022-12-29T11:40:06.591Z,5.18
2022-12-29T11:42:13.782Z,3.85
2022-12-29T11:44:21.672Z,12.40
2022-12-29T11:46:31.875Z,7.85
2022-12-29T11:48:40.506Z,13.07
2022-12-29T11:50:52.798Z,8.07
2022-12-29T11:53:13.338Z,6.50
2022-12-29T11:55:19.890Z,6.88
2022-12-29T11:57:23.041Z,11.43
2022-12-29T11:59:35.342Z,6.97
2022-12-29T12:01:40.171Z,10.68
2022-12-29T12:03:53.929Z,16.48
2022-12-29T12:06:04.489Z,6.50
2022-12-29T12:08:21.089Z,8.15
2022-12-29T12:10:30.357Z,8.25
2022-12-29T12:12:48.272Z,9.07
2022-12-29T12:15:00.618Z,5.80
2022-12-29T12:17:38.554Z,10.45
2022-12-29T12:19:45.128Z,10.50
2022-12-29T12:21:49.135Z,10.15
2022-12-29T12:24:09.474Z,10.40
2022-12-29T12:26:16.509Z,9.85
2022-12-29T12:28:36.443Z,7.68
2022-12-29T12:30:42.022Z,8.68
2022-12-29T12:32:46.438Z,13.43
2022-12-29T12:34:49.030Z,10.30
2022-12-29T12:36:53.479Z,6.18
2022-12-29T12:39:06.469Z,8.43
2022-12-29T12:41:29.228Z,11.90
2022-12-29T12:43:47.515Z,11.57
2022-12-29T12:46:10.680Z,11.40
2022-12-29T12:48:21.476Z,8.65
2022-12-29T12:50:31.743Z,7.25
2022-12-29T12:52:42.316Z,6.50
2022-12-29T12:54:49.629Z,11.75
2022-12-29T12:56:51.493Z,9.70
2022-12-29T12:59:14.199Z,7.00
2022-12-29T13:01:39.473Z,7.50
2022-12-29T13:03:53.899Z,5.40
2022-12-29T13:06:13.955Z,8.50
2022-12-29T13:08:34.083Z,5.30
2022-12-29T13:10:53.548Z,6.90
2022-12-29T13:13:16.414Z,7.68
2022-12-29T13:15:42.162Z,8.93
2022-12-29T13:17:47.783Z,12.65
2022-12-29T13:19:55.394Z,9.70
2022-12-29T13:22:08.174Z,10.43
2022-12-29T13:24:24.604Z,7.45
2022-12-29T13:26:32.201Z,10.60
2022-12-29T13:28:48.467Z,5.88
2022-12-29T13:30:56.091Z,7.20
2022-12-29T13:33:00.507Z,6.28
2022-12-29T13:35:07.712Z,9.73
2022-12-29T13:37:17.213Z,4.68
2022-12-29T13:39:28.830Z,6.05
2022-12-29T13:41:56.440Z,3.88
2022-12-29T13:43:58.401Z,5.55
2022-12-29T13:46:01.935Z,8.73
2022-12-29T13:48:17.661Z,9.60
2022-12-29T13:50:20.797Z,5.80
2022-12-29T13:52:28.227Z,7.82
2022-12-29T13:54:48.540Z,4.88
2022-12-29T13:56:50.092Z,7.53
2022-12-29T13:58:57.331Z,8.43
2022-12-29T14:01:04.193Z,7.47
2022-12-29T14:03:18.311Z,7.78
2022-12-29T14:05:22.720Z,7.30
2022-12-29T14:07:27.444Z,7.68
2022-12-29T14:09:38.016Z,8.98
2022-12-29T14:11:42.532Z,6.85
2022-12-29T14:13:48.166Z,8.93
2022-12-29T14:15:57.317Z,5.68
2022-12-29T14:18:10.718Z,7.15
2022-12-29T14:20:20.873Z,4.43
2022-12-29T14:22:33.037Z,5.20
2022-12-29T14:24:38.653Z,3.65
2022-12-29T14:26:40.136Z,3.95
2022-12-29T14:30:53.891Z,7.82
2022-12-29T14:33:05.233Z,3.92
2022-12-29T14:35:29.806Z,5.50
2022-12-29T14:37:44.772Z,6.38
2022-12-29T14:40:01.621Z,6.63
2022-12-29T14:42:17.653Z,6.93
2022-12-29T14:44:31.135Z,5.00
2022-12-29T14:46:46.595Z,2.08
2022-12-29T14:49:24.927Z,9.68
2022-12-29T14:51:41.853Z,4.63
2022-12-29T14:54:14.140Z,4.03
2022-12-29T14:56:36.558Z,5.78
2022-12-29T14:59:06.389Z,4.22
2022-12-29T15:04:15.667Z,5.47
2022-12-29T15:06:33.345Z,7.35
2022-12-29T15:08:46.821Z,4.95
2022-12-29T15:11:11.964Z,5.05
2022-12-29T15:13:36.943Z,2.78
2022-12-29T15:15:39.491Z,6.32
2022-12-29T15:17:43.608Z,6.18
2022-12-29T15:19:45.127Z,4.40
2022-12-29T15:21:53.389Z,5.47
2022-12-29T15:24:01.149Z,6.43
2022-12-29T15:26:07.497Z,5.93
2022-12-29T15:28:14.828Z,5.22
2022-12-29T15:30:18.241Z,7.07
2022-12-29T15:32:24.244Z,4.28
2022-12-29T15:34:32.347Z,3.10
2022-12-29T15:36:38.689Z,7.65
2022-12-29T15:38:42.809Z,8.45
2022-12-29T15:40:55.465Z,5.15
2022-12-29T15:43:03.110Z,3.38
2022-12-29T15:45:12.960Z,5.45
2022-12-29T15:47:22.207Z,5.43
2022-12-29T15:49:28.850Z,4.78
2022-12-29T15:51:38.411Z,3.85
2022-12-29T15:53:39.860Z,8.77
2022-12-29T15:55:44.645Z,6.05
2022-12-29T15:57:46.091Z,7.20
2022-12-29T15:59:56.812Z,6.95
2022-12-29T16:01:59.721Z,8.25
2022-12-29T16:04:04.048Z,5.68
2022-12-29T16:08:25.813Z,5.40
2022-12-29T16:10:41.627Z,4.18
2022-12-29T16:12:46.018Z,5.55
2022-12-29T16:14:49.128Z,3.92
2022-12-29T16:16:51.377Z,6.88
2022-12-29T16:18:57.952Z,4.93
2022-12-29T16:21:03.591Z,5.70
2022-12-29T16:23:22.335Z,2.95
2022-12-29T16:25:29.156Z,4.13
2022-12-29T16:27:41.091Z,4.20
2022-12-29T16:29:42.595Z,7.50
2022-12-29T16:32:05.922Z,4.50
2022-12-29T16:34:14.429Z,4.53
2022-12-29T16:36:24.777Z,7.88
2022-12-29T16:38:31.668Z,4.78
2022-12-29T16:40:33.235Z,4.93
2022-12-29T16:44:39.036Z,12.35
2022-12-29T16:46:44.099Z,2.70
2022-12-29T16:48:53.610Z,7.18
2022-12-29T16:51:02.171Z,6.50
2022-12-29T16:53:04.314Z,4.93
2022-12-29T16:55:16.615Z,4.63
2022-12-29T16:57:25.623Z,2.00
2022-12-29T16:59:40.751Z,2.97
2022-12-29T17:01:45.217Z,3.05
2022-12-29T17:03:59.240Z,6.32
2022-12-29T17:06:00.737Z,3.38
2022-12-29T17:08:14.285Z,2.40
2022-12-29T17:10:16.407Z,4.32
2022-12-29T17:12:20.277Z,2.88
2022-12-29T17:14:52.969Z,4.10
2022-12-29T17:16:57.153Z,5.97
2022-12-29T17:21:03.254Z,2.55
2022-12-29T17:23:06.489Z,5.55
2022-12-29T17:25:18.888Z,4.85
2022-12-29T17:27:22.604Z,5.07
2022-12-29T17:29:38.184Z,4.38
2022-12-29T17:31:39.747Z,3.95
2022-12-29T17:33:49.127Z,4.72
2022-12-29T17:35:55.944Z,4.15
2022-12-29T17:38:00.832Z,5.00
2022-12-29T17:40:07.306Z,5.78
2022-12-29T17:42:12.090Z,4.82
2022-12-29T17:44:21.315Z,5.13
2022-12-29T17:46:35.724Z,4.80
2022-12-29T17:48:56.491Z,7.72
2022-12-29T17:51:12.200Z,4.13
2022-12-29T17:55:39.048Z,6.50
2022-12-29T17:57:59.141Z,7.88
2022-12-29T18:00:34.897Z,7.25
2022-12-29T18:02:46.772Z,5.70
2022-12-29T18:04:53.158Z,7.05
2022-12-29T18:06:57.752Z,9.93
2022-12-29T18:08:59.405Z,5.85
2022-12-29T18:11:05.258Z,5.88
2022-12-29T18:13:06.953Z,3.78
2022-12-29T18:15:17.300Z,4.00
2022-12-29T18:17:21.426Z,6.22
2022-12-29T18:19:27.602Z,4.93
2022-12-29T18:21:34.089Z,4.22
2022-12-29T18:23:35.618Z,4.68
2022-12-29T18:25:42.124Z,2.47
2022-12-29T18:27:46.515Z,1.67
2022-12-29T18:29:50.998Z,3.33
2022-12-29T18:31:52.526Z,3.03
2022-12-29T18:33:54.614Z,2.28
2022-12-29T18:36:00.038Z,2.78
2022-12-29T18:38:06.049Z,2.90
2022-12-29T18:40:13.386Z,2.17
2022-12-29T18:42:18.580Z,4.07
2022-12-29T18:44:21.685Z,2.75
2022-12-29T18:46:26.073Z,4.10
2022-12-29T18:48:28.082Z,1.75
2022-12-29T18:50:29.614Z,3.38
2022-12-29T18:52:33.843Z,0.85
2022-12-29T18:54:35.356Z,1.45
2022-12-29T18:56:39.440Z,0.60
2022-12-29T18:58:44.115Z,3.17
2022-12-29T19:00:50.110Z,1.77
2022-12-29T19:02:55.141Z,2.42
2022-12-29T19:05:05.196Z,1.85
2022-12-29T19:07:18.842Z,4.25
2022-12-29T19:09:36.284Z,4.05
2022-12-29T19:12:00.941Z,0.50
2022-12-29T19:14:22.082Z,1.85
2022-12-29T19:16:52.286Z,1.05
2022-12-29T19:19:09.321Z,2.75
2022-12-29T19:21:37.873Z,2.97
2022-12-29T19:24:04.692Z,1.10
2022-12-29T19:26:57.428Z,1.65
2022-12-29T19:29:06.231Z,1.90
2022-12-29T19:31:17.121Z,1.83
2022-12-29T19:33:30.228Z,0.85
2022-12-29T19:35:36.469Z,1.05
2022-12-29T19:37:42.041Z,1.33
2022-12-29T19:39:49.062Z,1.15
2022-12-29T19:41:53.175Z,3.60
2022-12-29T19:44:03.634Z,0.50
2022-12-29T19:46:11.071Z,0.52
2022-12-29T19:48:17.355Z,0.82
2022-12-29T19:50:24.608Z,1.02
2022-12-29T19:52:34.808Z,0.40
2022-12-29T19:54:42.011Z,1.88
2022-12-29T19:56:48.819Z,1.00
2022-12-29T19:58:58.692Z,0.57
2022-12-29T20:01:17.420Z,1.17
2022-12-29T20:03:22.045Z,0.90
2022-12-29T20:05:23.681Z,0.40
2022-12-29T20:07:25.751Z,0.75
2022-12-29T20:09:27.263Z,2.67
2022-12-29T20:11:28.769Z,1.00
2022-12-29T20:13:31.676Z,0.70
2022-12-29T20:15:33.190Z,2.17
2022-12-29T20:18:10.699Z,0.95
2022-12-29T20:19:56.713Z,1.40
2022-12-29T20:22:01.857Z,0.57
2022-12-29T20:24:03.462Z,1.10
2022-12-29T20:26:05.706Z,0.30
2022-12-29T20:28:14.644Z,0.25
2022-12-29T20:30:16.145Z,0.10
2022-12-29T20:32:19.284Z,0.68
2022-12-29T20:34:24.539Z,0.32
2022-12-29T20:36:27.465Z,0.25
2022-12-29T20:38:28.999Z,0.22
2022-12-29T20:40:42.325Z,0.30
2022-12-29T20:42:48.839Z,0.98
2022-12-29T20:47:01.113Z,0.45
2022-12-29T20:49:05.686Z,1.27
2022-12-29T20:51:07.547Z,2.00
2022-12-29T20:53:15.068Z,0.98
2022-12-29T20:55:16.629Z,1.85
2022-12-29T20:57:18.181Z,0.60
2022-12-29T20:59:28.341Z,3.33
2022-12-29T21:01:30.862Z,1.00
2022-12-29T21:03:32.628Z,2.38
2022-12-29T21:07:38.245Z,3.60
2022-12-29T21:09:39.831Z,3.30
2022-12-29T21:11:47.810Z,2.63
2022-12-29T21:13:57.167Z,1.08
2022-12-29T21:16:04.364Z,1.95
2022-12-29T21:18:11.818Z,2.03
2022-12-29T21:20:29.805Z,1.35
2022-12-29T21:22:31.326Z,1.15
2022-12-29T21:24:35.576Z,2.30
2022-12-29T21:26:37.177Z,1.58
2022-12-29T21:28:40.086Z,0.77
2022-12-29T21:30:44.386Z,1.75
2022-12-29T21:32:51.738Z,1.05
2022-12-29T21:34:53.249Z,1.30
2022-12-29T21:37:00.654Z,1.27
2022-12-29T21:41:10.330Z,0.90
2022-12-29T21:43:17.542Z,0.93
2022-12-29T21:45:25.061Z,1.50
2022-12-29T21:49:50.714Z,0.68
2022-12-29T21:51:54.203Z,1.45
2022-12-29T21:54:20.416Z,1.10
2022-12-29T21:56:27.748Z,0.68
2022-12-29T21:58:54.607Z,1.17
2022-12-29T22:01:28.648Z,0.85
2022-12-29T22:03:48.672Z,1.08
2022-12-29T22:06:11.443Z,1.38
2022-12-29T22:08:31.563Z,0.93
2022-12-29T22:10:52.204Z,1.90
2022-12-29T22:13:05.241Z,0.68
2022-12-29T22:15:21.310Z,0.40
2022-12-29T22:17:44.983Z,1.98
2022-12-29T22:20:07.654Z,1.45
2022-12-29T22:22:26.051Z,2.38
2022-12-29T22:24:45.145Z,1.45
2022-12-29T22:27:09.160Z,1.70
2022-12-29T22:29:34.252Z,1.58
2022-12-29T22:31:48.338Z,0.52
2022-12-29T22:34:07.117Z,0.95
2022-12-29T22:36:22.224Z,0.80
2022-12-29T22:38:32.513Z,1.63
2022-12-29T22:40:58.610Z,0.55
2022-12-29T22:43:24.421Z,0.77
2022-12-29T22:45:53.159Z,0.52
2022-12-29T22:48:19.232Z,0.82
2022-12-29T22:50:41.795Z,0.38
2022-12-29T22:52:44.327Z,0.63
2022-12-29T22:54:48.451Z,0.40
2022-12-29T22:56:49.873Z,0.43
2022-12-29T23:00:58.415Z,1.07
2022-12-29T23:03:04.092Z,1.92
2022-12-29T23:05:08.825Z,1.52
2022-12-29T23:07:13.154Z,0.35
2022-12-29T23:09:19.454Z,0.70
2022-12-29T23:11:21.015Z,1.85
2022-12-29T23:13:25.241Z,0.63
2022-12-29T23:15:26.741Z,0.63
2022-12-29T23:17:31.220Z,0.40
2022-12-29T23:19:32.657Z,2.00
2022-12-29T23:21:34.127Z,1.95
2022-12-29T23:23:54.862Z,0.52
2022-12-29T23:25:56.458Z,1.25
2022-12-29T23:28:00.831Z,0.30
2022-12-29T23:30:02.503Z,0.70
2022-12-29T23:32:06.718Z,2.28
2022-12-29T23:34:15.161Z,1.75
2022-12-29T23:36:19.348Z,2.10
2022-12-29T23:40:24.996Z,3.13
2022-12-29T23:42:32.192Z,2.15
2022-12-29T23:44:33.961Z,2.15
2022-12-29T23:46:36.903Z,3.03
2022-12-29T23:48:38.529Z,2.42
2022-12-29T23:50:42.988Z,1.83
2022-12-29T23:52:44.491Z,1.75
2022-12-29T23:54:49.526Z,2.50
2022-12-29T23:56:51.144Z,1.02
2022-12-29T23:58:53.004Z,0.80
